createdAt,value
2017-10-14T00:00:09.147Z,98.30
2017-10-14T00:02:35.457Z,98.30
2017-10-14T00:05:01.799Z,98.20
2017-10-14T00:07:28.108Z,98.30
2017-10-14T00:09:54.673Z,98.30
2017-10-14T00:12:21.022Z,98.30
2017-10-14T00:14:47.323Z,98.20
2017-10-14T00:17:13.666Z,98.10
2017-10-14T00:19:39.950Z,98.10
2017-10-14T00:22:06.238Z,98.20
2017-10-14T00:24:32.517Z,98.20
2017-10-14T00:26:58.798Z,98.10
2017-10-14T00:29:25.211Z,98.10
2017-10-14T00:31:51.547Z,98.10
2017-10-14T00:34:17.989Z,98.10
2017-10-14T00:36:44.451Z,98.00
2017-10-14T00:39:10.763Z,98.10
2017-10-14T00:41:37.074Z,98.20
2017-10-14T00:44:03.411Z,98.20
2017-10-14T00:46:29.727Z,98.20
2017-10-14T00:48:56.013Z,98.30
2017-10-14T00:51:22.391Z,98.30
2017-10-14T00:53:48.700Z,98.50
2017-10-14T00:56:15.050Z,98.40
2017-10-14T00:58:41.369Z,98.40
2017-10-14T01:01:08.470Z,98.70
2017-10-14T01:03:34.738Z,98.60
2017-10-14T01:06:01.036Z,98.80
2017-10-14T01:08:27.398Z,98.80
2017-10-14T01:10:53.708Z,98.90
2017-10-14T01:13:20.021Z,99.10
2017-10-14T01:15:52.805Z,99.20
2017-10-14T01:18:19.168Z,99.20
2017-10-14T01:20:45.494Z,99.20
2017-10-14T01:23:11.907Z,99.30
2017-10-14T01:25:38.213Z,99.40
2017-10-14T01:28:04.544Z,99.50
2017-10-14T01:30:30.985Z,99.60
2017-10-14T01:32:57.290Z,99.60
2017-10-14T01:35:24.405Z,99.50
2017-10-14T01:37:50.783Z,99.50
2017-10-14T01:40:17.135Z,99.40
2017-10-14T01:42:43.459Z,99.40
2017-10-14T01:45:09.843Z,99.40
2017-10-14T01:47:36.913Z,99.20
2017-10-14T01:50:03.256Z,99.20
2017-10-14T01:52:29.610Z,99.20
2017-10-14T01:54:55.914Z,99.20
2017-10-14T01:57:22.566Z,99.20
2017-10-14T01:59:48.887Z,99.10
2017-10-14T02:02:22.483Z,99.00
2017-10-14T02:04:48.870Z,98.90
2017-10-14T02:07:15.959Z,99.20
2017-10-14T02:09:42.343Z,99.20
2017-10-14T02:12:09.429Z,99.40
2017-10-14T02:14:35.765Z,99.40
2017-10-14T02:17:02.028Z,99.30
2017-10-14T02:19:28.331Z,99.20
2017-10-14T02:21:55.070Z,99.20
2017-10-14T02:24:21.404Z,99.30
2017-10-14T02:26:47.703Z,99.30
2017-10-14T02:29:14.055Z,99.40
2017-10-14T02:31:40.417Z,99.30
2017-10-14T02:34:06.719Z,99.10
2017-10-14T02:39:06.092Z,99.10
2017-10-14T02:41:32.391Z,99.10
2017-10-14T02:43:59.367Z,99.10
2017-10-14T02:46:25.749Z,99.10
2017-10-14T02:48:52.045Z,99.00
2017-10-14T02:51:18.375Z,99.00
2017-10-14T02:53:44.741Z,99.00
2017-10-14T02:56:11.045Z,99.00
2017-10-14T02:58:37.362Z,99.00
2017-10-14T03:01:03.696Z,98.90
2017-10-14T03:03:30.006Z,98.90
2017-10-14T03:05:56.336Z,98.80
2017-10-14T03:08:22.561Z,98.70
2017-10-14T03:10:48.917Z,98.70
2017-10-14T03:13:15.266Z,98.70
2017-10-14T03:15:41.580Z,98.80
2017-10-14T03:18:07.915Z,98.80
2017-10-14T03:20:34.522Z,98.80
2017-10-14T03:23:00.824Z,98.70
2017-10-14T03:25:27.890Z,98.70
2017-10-14T03:27:54.195Z,98.70
2017-10-14T03:30:20.532Z,98.70
2017-10-14T03:32:46.964Z,98.70
2017-10-14T03:35:14.141Z,98.60
2017-10-14T03:37:40.461Z,98.60
2017-10-14T03:40:07.487Z,98.60
2017-10-14T03:42:34.556Z,98.60
2017-10-14T03:45:00.889Z,98.60
2017-10-14T03:47:27.224Z,98.50
2017-10-14T03:49:53.520Z,98.60
2017-10-14T03:52:19.844Z,98.60
2017-10-14T03:54:46.152Z,98.60
2017-10-14T03:57:13.390Z,98.60
2017-10-14T03:59:39.736Z,98.60
2017-10-14T04:02:06.815Z,98.60
2017-10-14T04:04:33.436Z,98.60
2017-10-14T04:06:59.735Z,98.50
2017-10-14T04:09:26.025Z,98.50
2017-10-14T04:11:53.113Z,99.90
2017-10-14T04:14:19.419Z,99.90
2017-10-14T04:16:45.743Z,99.90
2017-10-14T04:19:12.049Z,99.00
2017-10-14T04:21:38.370Z,97.90
2017-10-14T04:24:04.762Z,97.40
2017-10-14T04:26:31.824Z,97.10
2017-10-14T04:29:00.838Z,97.10
2017-10-14T04:31:27.150Z,97.10
2017-10-14T04:33:53.489Z,97.20
2017-10-14T04:36:19.824Z,97.30
2017-10-14T04:38:46.147Z,97.40
2017-10-14T04:41:12.463Z,97.40
2017-10-14T04:43:38.778Z,97.40
2017-10-14T04:46:05.820Z,97.60
2017-10-14T04:48:32.847Z,97.60
2017-10-14T04:50:59.172Z,97.50
2017-10-14T04:53:25.471Z,97.60
2017-10-14T04:55:51.742Z,97.60
2017-10-14T04:58:18.055Z,97.70
2017-10-14T05:00:44.402Z,97.80
2017-10-14T05:03:10.753Z,97.80
2017-10-14T05:05:37.110Z,98.00
2017-10-14T05:08:03.393Z,98.10
2017-10-14T05:10:30.445Z,98.10
2017-10-14T05:12:57.550Z,98.20
2017-10-14T05:15:23.889Z,98.10
2017-10-14T05:17:50.218Z,98.30
2017-10-14T05:20:16.618Z,98.40
2017-10-14T05:22:42.916Z,99.90
2017-10-14T05:25:09.308Z,99.90
2017-10-14T05:27:35.628Z,99.90
2017-10-14T05:30:02.130Z,99.90
2017-10-14T05:32:28.510Z,98.60
2017-10-14T05:34:55.561Z,96.50
2017-10-14T05:37:22.667Z,94.60
2017-10-14T05:39:48.960Z,94.50
2017-10-14T05:42:15.267Z,93.70
2017-10-14T05:44:41.549Z,94.00
2017-10-14T05:47:07.824Z,94.50
2017-10-14T05:49:34.911Z,95.00
2017-10-14T05:52:01.213Z,95.00
2017-10-14T05:54:27.506Z,95.30
2017-10-14T05:56:53.808Z,95.50
2017-10-14T05:59:20.118Z,95.70
2017-10-14T06:01:46.514Z,95.90
2017-10-14T06:04:13.568Z,96.50
2017-10-14T06:06:40.676Z,97.00
2017-10-14T06:09:06.977Z,97.00
2017-10-14T06:11:33.310Z,97.30
2017-10-14T06:14:06.544Z,97.50
2017-10-14T06:16:32.972Z,97.40
2017-10-14T06:18:59.290Z,97.30
2017-10-14T06:21:25.666Z,97.30
2017-10-14T06:23:51.951Z,97.30
2017-10-14T06:26:18.302Z,97.30
2017-10-14T06:28:44.650Z,97.30
2017-10-14T06:31:10.992Z,97.50
2017-10-14T06:33:37.338Z,97.50
2017-10-14T06:36:03.647Z,97.60
2017-10-14T06:38:29.992Z,97.60
2017-10-14T06:40:56.378Z,97.80
2017-10-14T06:43:23.514Z,98.10
2017-10-14T06:45:49.802Z,98.10
2017-10-14T06:48:16.144Z,98.30
2017-10-14T06:50:42.562Z,98.60
2017-10-14T06:53:09.000Z,98.80
2017-10-14T06:55:35.400Z,99.20
2017-10-14T06:58:01.784Z,99.80
2017-10-14T07:00:28.145Z,99.90
2017-10-14T07:02:55.214Z,99.90
2017-10-14T07:05:21.565Z,99.80
2017-10-14T07:07:47.837Z,99.90
2017-10-14T07:10:14.890Z,99.90
2017-10-14T07:12:41.281Z,99.90
2017-10-14T07:15:07.643Z,99.90
2017-10-14T07:17:34.760Z,99.90
2017-10-14T07:20:01.100Z,99.90
2017-10-14T07:22:27.412Z,99.90
2017-10-14T07:24:53.762Z,99.90
2017-10-14T07:27:20.830Z,99.90
2017-10-14T07:29:47.939Z,99.90
2017-10-14T07:32:14.302Z,99.90
2017-10-14T07:34:41.364Z,99.90
2017-10-14T07:37:07.811Z,99.90
2017-10-14T07:39:34.237Z,99.90
2017-10-14T07:42:00.589Z,99.90
2017-10-14T07:44:26.964Z,99.90
2017-10-14T07:47:00.903Z,99.90
2017-10-14T07:49:27.205Z,99.90
2017-10-14T07:51:54.306Z,99.90
2017-10-14T07:54:20.751Z,99.90
2017-10-14T07:56:47.116Z,99.90
2017-10-14T07:59:13.461Z,99.90
2017-10-14T08:01:40.105Z,99.90
2017-10-14T08:04:07.290Z,99.90
2017-10-14T08:06:34.408Z,99.90
2017-10-14T08:09:00.777Z,99.90
2017-10-14T08:11:27.186Z,99.90
2017-10-14T08:13:53.580Z,99.90
2017-10-14T08:16:20.357Z,99.90
2017-10-14T08:18:46.721Z,99.90
2017-10-14T08:21:13.049Z,99.90
2017-10-14T08:23:40.507Z,99.90
2017-10-14T08:26:07.632Z,99.90
2017-10-14T08:28:33.954Z,99.90
2017-10-14T08:31:00.298Z,99.90
2017-10-14T08:33:26.615Z,99.70
2017-10-14T08:35:52.925Z,99.60
2017-10-14T08:38:19.297Z,99.40
2017-10-14T08:40:45.646Z,99.40
2017-10-14T08:43:12.723Z,99.20
2017-10-14T08:45:39.034Z,99.20
2017-10-14T08:48:05.372Z,98.90
2017-10-14T08:50:31.672Z,98.80
2017-10-14T08:52:58.709Z,98.70
2017-10-14T08:55:25.732Z,98.70
2017-10-14T08:57:52.366Z,98.40
2017-10-14T09:00:18.686Z,98.30
2017-10-14T09:02:45.040Z,98.20
2017-10-14T09:05:12.098Z,97.80
2017-10-14T09:07:38.404Z,97.70
2017-10-14T09:10:04.732Z,97.30
2017-10-14T09:15:47.868Z,96.80
2017-10-14T09:18:14.197Z,96.50
2017-10-14T09:20:41.626Z,96.60
2017-10-14T09:23:07.920Z,96.60
2017-10-14T09:25:35.083Z,96.30
2017-10-14T09:28:01.420Z,96.30
2017-10-14T09:30:27.764Z,96.30
2017-10-14T09:32:54.477Z,96.20
2017-10-14T09:35:20.823Z,95.80
2017-10-14T09:37:47.161Z,95.60
2017-10-14T09:40:14.213Z,95.00
2017-10-14T09:42:40.500Z,95.00
2017-10-14T09:45:07.659Z,94.50
2017-10-14T09:47:33.963Z,94.50
2017-10-14T09:50:01.052Z,93.20
2017-10-14T09:52:27.433Z,93.20
2017-10-14T09:54:53.782Z,92.10
2017-10-14T09:57:20.087Z,91.20
2017-10-14T09:59:46.361Z,90.60
2017-10-14T10:02:12.742Z,90.20
2017-10-14T10:04:39.088Z,90.10
2017-10-14T10:07:05.445Z,88.60
2017-10-14T10:09:31.791Z,88.30
2017-10-14T10:11:58.419Z,87.30
2017-10-14T10:14:24.785Z,85.20
2017-10-14T10:16:51.094Z,85.00
2017-10-14T10:19:17.468Z,84.00
2017-10-14T10:21:51.426Z,82.80
2017-10-14T10:24:17.780Z,82.70
2017-10-14T10:26:44.173Z,81.40
2017-10-14T10:29:10.559Z,79.70
2017-10-14T10:31:37.611Z,77.20
2017-10-14T10:34:03.929Z,77.20
2017-10-14T10:36:30.280Z,75.40
2017-10-14T10:38:57.325Z,74.20
2017-10-14T10:41:23.685Z,74.20
2017-10-14T10:43:50.015Z,74.10
2017-10-14T10:46:16.337Z,73.80
2017-10-14T10:48:42.588Z,73.10
2017-10-14T10:51:08.952Z,73.30
2017-10-14T10:53:35.331Z,73.20
2017-10-14T10:56:01.652Z,73.60
2017-10-14T10:58:28.048Z,73.00
2017-10-14T11:00:55.080Z,71.70
2017-10-14T11:03:21.440Z,71.60
2017-10-14T11:05:47.809Z,71.30
2017-10-14T11:08:14.150Z,70.70
2017-10-14T11:10:40.488Z,70.00
2017-10-14T11:13:06.822Z,69.50
2017-10-14T11:15:33.138Z,68.60
2017-10-14T11:17:59.422Z,68.10
2017-10-14T11:20:25.707Z,68.00
2017-10-14T11:22:51.999Z,68.00
2017-10-14T11:25:18.400Z,67.60
2017-10-14T11:27:44.675Z,66.90
2017-10-14T11:30:11.036Z,66.30
2017-10-14T11:32:37.382Z,65.30
2017-10-14T11:35:03.718Z,65.00
2017-10-14T11:37:30.039Z,64.80
2017-10-14T11:39:56.336Z,64.00
2017-10-14T11:42:22.663Z,63.40
2017-10-14T11:44:48.967Z,63.20
2017-10-14T11:47:15.669Z,63.00
2017-10-14T11:49:41.950Z,62.10
2017-10-14T11:52:08.339Z,61.40
2017-10-14T11:54:34.617Z,61.40
2017-10-14T11:57:00.902Z,60.80
2017-10-14T11:59:27.222Z,60.60
2017-10-14T12:01:53.506Z,60.50
2017-10-14T12:04:20.828Z,59.10
2017-10-14T12:06:47.124Z,59.10
2017-10-14T12:09:13.404Z,59.00
2017-10-14T12:11:39.688Z,58.70
2017-10-14T12:14:05.997Z,58.70
2017-10-14T12:16:33.078Z,58.20
2017-10-14T12:18:59.345Z,58.20
2017-10-14T12:21:25.631Z,58.80
2017-10-14T12:23:51.920Z,58.70
2017-10-14T12:26:19.056Z,58.60
2017-10-14T12:28:46.104Z,58.60
2017-10-14T12:31:13.118Z,57.30
2017-10-14T12:33:39.414Z,57.30
2017-10-14T12:36:05.725Z,57.30
2017-10-14T12:38:31.957Z,57.40
2017-10-14T12:40:58.243Z,57.10
2017-10-14T12:43:24.507Z,57.00
2017-10-14T12:45:50.835Z,57.10
2017-10-14T12:48:17.101Z,57.20
2017-10-14T12:50:44.196Z,55.80
2017-10-14T12:53:11.251Z,55.80
2017-10-14T12:55:37.551Z,55.80
2017-10-14T12:58:03.907Z,55.80
2017-10-14T13:00:30.192Z,55.70
2017-10-14T13:02:56.492Z,55.40
2017-10-14T13:05:22.812Z,55.70
2017-10-14T13:07:49.113Z,55.80
2017-10-14T13:10:16.162Z,55.90
2017-10-14T13:12:43.267Z,55.80
2017-10-14T13:15:09.578Z,55.80
2017-10-14T13:17:35.886Z,56.10
2017-10-14T13:20:02.235Z,56.30
2017-10-14T13:22:28.553Z,56.40
2017-10-14T13:24:54.925Z,56.60
2017-10-14T13:27:21.231Z,56.60
2017-10-14T13:29:54.559Z,56.60
2017-10-14T13:32:21.967Z,56.40
2017-10-14T13:34:48.555Z,56.50
2017-10-14T13:37:15.584Z,56.00
2017-10-14T13:39:42.004Z,56.00
2017-10-14T13:42:08.367Z,55.80
2017-10-14T13:44:35.464Z,56.20
2017-10-14T13:47:01.831Z,56.20
2017-10-14T13:49:28.905Z,56.40
2017-10-14T13:51:55.233Z,56.40
2017-10-14T13:54:21.548Z,56.60
2017-10-14T13:56:47.895Z,56.30
2017-10-14T13:59:14.202Z,55.90
2017-10-14T14:01:41.249Z,55.50
2017-10-14T14:04:07.632Z,55.50
2017-10-14T14:06:33.928Z,54.90
2017-10-14T14:09:00.353Z,54.80
2017-10-14T14:11:26.719Z,55.20
2017-10-14T14:13:53.380Z,55.10
2017-10-14T14:16:20.432Z,54.20
2017-10-14T14:18:46.730Z,54.20
2017-10-14T14:21:13.069Z,54.20
2017-10-14T14:23:39.383Z,53.50
2017-10-14T14:26:05.745Z,53.60
2017-10-14T14:28:32.057Z,53.40
2017-10-14T14:30:58.384Z,53.10
2017-10-14T14:33:24.760Z,52.80
2017-10-14T14:35:51.155Z,52.50
2017-10-14T14:38:17.472Z,52.40
2017-10-14T14:40:43.845Z,52.20
2017-10-14T14:43:10.159Z,52.40
2017-10-14T14:45:37.202Z,51.70
2017-10-14T14:48:04.265Z,51.90
2017-10-14T14:50:31.368Z,51.90
2017-10-14T14:52:58.092Z,51.90
2017-10-14T14:55:24.390Z,51.90
2017-10-14T14:57:51.440Z,52.30
2017-10-14T15:00:17.816Z,52.20
2017-10-14T15:02:44.125Z,52.00
2017-10-14T15:05:10.500Z,51.90
2017-10-14T15:07:37.630Z,51.90
2017-10-14T15:10:04.010Z,51.90
2017-10-14T15:12:30.326Z,52.60
2017-10-14T15:14:56.677Z,53.40
2017-10-14T15:17:23.020Z,53.60
2017-10-14T15:19:49.366Z,53.80
2017-10-14T15:22:15.688Z,54.60
2017-10-14T15:24:42.126Z,54.90
2017-10-14T15:27:08.409Z,55.10
2017-10-14T15:29:34.748Z,55.00
2017-10-14T15:32:01.066Z,55.20
2017-10-14T15:34:27.438Z,55.60
2017-10-14T15:36:53.782Z,56.80
2017-10-14T15:39:20.087Z,58.00
2017-10-14T15:41:46.429Z,59.00
2017-10-14T15:44:12.806Z,60.20
2017-10-14T15:46:39.046Z,62.00
2017-10-14T15:49:05.381Z,63.60
2017-10-14T15:51:32.506Z,66.10
2017-10-14T15:53:58.797Z,66.00
2017-10-14T15:56:25.099Z,67.10
2017-10-14T15:58:51.464Z,68.00
2017-10-14T16:01:17.778Z,68.90
2017-10-14T16:03:44.098Z,70.00
2017-10-14T16:06:10.373Z,70.90
2017-10-14T16:08:36.714Z,71.70
2017-10-14T16:11:03.032Z,72.70
2017-10-14T16:13:29.418Z,73.50
2017-10-14T16:15:55.723Z,74.50
2017-10-14T16:18:22.045Z,75.40
2017-10-14T16:20:48.384Z,76.20
2017-10-14T16:23:14.715Z,77.20
2017-10-14T16:25:41.135Z,78.10
2017-10-14T16:28:07.479Z,79.20
2017-10-14T16:30:33.827Z,80.70
2017-10-14T16:33:00.140Z,82.00
2017-10-14T16:35:26.463Z,83.20
2017-10-14T16:37:52.860Z,83.90
2017-10-14T16:40:19.163Z,84.70
2017-10-14T16:42:46.234Z,86.80
2017-10-14T16:45:12.542Z,86.80
2017-10-14T16:47:39.185Z,88.00
2017-10-14T16:50:05.485Z,89.00
2017-10-14T16:52:31.815Z,89.90
2017-10-14T16:54:58.880Z,90.80
2017-10-14T16:57:26.044Z,91.00
2017-10-14T16:59:52.452Z,91.00
2017-10-14T17:02:19.553Z,91.50
2017-10-14T17:04:46.159Z,91.50
2017-10-14T17:07:12.481Z,91.70
2017-10-14T17:09:39.574Z,92.00
2017-10-14T17:12:05.878Z,92.00
2017-10-14T17:14:32.207Z,92.20
2017-10-14T17:16:58.514Z,92.40
2017-10-14T17:19:24.868Z,92.50
2017-10-14T17:21:51.190Z,92.70
2017-10-14T17:24:17.557Z,92.70
2017-10-14T17:26:43.994Z,92.80
2017-10-14T17:29:10.312Z,92.90
2017-10-14T17:31:36.661Z,93.00
2017-10-14T17:34:02.980Z,93.10
2017-10-14T17:36:29.326Z,93.20
2017-10-14T17:38:56.426Z,93.60
2017-10-14T17:41:22.866Z,93.50
2017-10-14T17:43:49.211Z,93.70
2017-10-14T17:46:15.547Z,93.80
2017-10-14T17:48:41.943Z,94.00
2017-10-14T17:51:08.364Z,94.10
2017-10-14T17:53:34.709Z,94.20
2017-10-14T17:56:01.028Z,94.20
2017-10-14T17:58:27.417Z,94.20
2017-10-14T18:00:53.770Z,94.40
2017-10-14T18:03:20.092Z,94.40
2017-10-14T18:05:46.431Z,94.40
2017-10-14T18:08:12.771Z,94.50
2017-10-14T18:10:39.175Z,94.60
2017-10-14T18:13:05.538Z,94.60
2017-10-14T18:15:34.101Z,94.70
2017-10-14T18:18:01.897Z,94.80
2017-10-14T18:20:29.547Z,94.80
2017-10-14T18:22:56.176Z,94.80
2017-10-14T18:25:23.637Z,95.00
2017-10-14T18:27:50.163Z,95.10
2017-10-14T18:30:16.528Z,95.20
2017-10-14T18:32:44.079Z,95.30
2017-10-14T18:35:11.727Z,95.30
2017-10-14T18:37:38.140Z,95.30
2017-10-14T18:40:04.481Z,95.50
2017-10-14T18:42:31.141Z,95.50
2017-10-14T18:44:57.466Z,95.60
2017-10-14T18:47:23.817Z,95.60
2017-10-14T18:49:51.802Z,95.70
2017-10-14T18:52:18.201Z,95.60
2017-10-14T18:54:45.879Z,95.60
2017-10-14T18:57:12.226Z,95.70
2017-10-14T18:59:38.563Z,95.70
2017-10-14T19:02:06.292Z,95.70
2017-10-14T19:04:32.832Z,95.80
2017-10-14T19:06:59.295Z,95.80
2017-10-14T19:09:25.730Z,95.80
2017-10-14T19:11:53.149Z,95.90
2017-10-14T19:14:21.811Z,96.00
2017-10-14T19:16:48.464Z,96.20
2017-10-14T19:19:14.815Z,96.00
2017-10-14T19:21:41.174Z,96.00
2017-10-14T19:24:07.552Z,96.10
2017-10-14T19:26:34.792Z,96.10
2017-10-14T19:29:01.655Z,96.10
2017-10-14T19:31:28.810Z,96.20
2017-10-14T19:33:55.146Z,96.20
2017-10-14T19:36:21.969Z,96.20
2017-10-14T19:38:49.117Z,96.20
2017-10-14T19:41:16.251Z,96.30
2017-10-14T19:43:42.621Z,96.30
2017-10-14T19:46:09.050Z,96.30
2017-10-14T19:48:35.480Z,96.50
2017-10-14T19:51:01.857Z,96.60
2017-10-14T19:53:28.268Z,96.60
2017-10-14T19:55:54.689Z,96.60
2017-10-14T19:58:21.105Z,96.60
2017-10-14T20:00:47.509Z,96.70
2017-10-14T20:03:14.672Z,96.50
2017-10-14T20:05:41.094Z,96.50
2017-10-14T20:08:07.554Z,96.60
2017-10-14T20:10:33.958Z,96.60
2017-10-14T20:13:01.083Z,96.70
2017-10-14T20:15:28.130Z,96.70
2017-10-14T20:17:54.562Z,96.70
2017-10-14T20:20:21.164Z,96.70
2017-10-14T20:22:47.498Z,96.70
2017-10-14T20:25:13.900Z,96.70
2017-10-14T20:27:40.295Z,96.70
2017-10-14T20:30:06.638Z,96.80
2017-10-14T20:32:33.831Z,97.00
2017-10-14T20:35:00.203Z,97.00
2017-10-14T20:37:27.473Z,97.10
2017-10-14T20:39:53.954Z,97.10
2017-10-14T20:42:20.365Z,97.10
2017-10-14T20:44:46.770Z,97.10
2017-10-14T20:47:13.172Z,97.10
2017-10-14T20:49:39.500Z,97.20
2017-10-14T20:52:06.616Z,97.20
2017-10-14T20:54:32.978Z,97.20
2017-10-14T20:56:59.357Z,97.10
2017-10-14T20:59:25.799Z,97.00
2017-10-14T21:01:52.172Z,97.00
2017-10-14T21:04:18.618Z,97.10
2017-10-14T21:06:44.988Z,97.00
2017-10-14T21:09:12.175Z,97.10
2017-10-14T21:11:39.942Z,97.40
2017-10-14T21:14:06.307Z,97.20
2017-10-14T21:16:32.638Z,97.10
2017-10-14T21:18:58.988Z,97.20
2017-10-14T21:21:25.409Z,97.10
2017-10-14T21:23:51.739Z,97.20
2017-10-14T21:26:18.121Z,97.20
2017-10-14T21:28:45.214Z,97.30
2017-10-14T21:31:12.373Z,97.30
2017-10-14T21:33:38.721Z,97.30
2017-10-14T21:36:05.071Z,97.40
2017-10-14T21:38:31.583Z,97.30
2017-10-14T21:40:58.151Z,97.30
2017-10-14T21:43:24.471Z,97.30
2017-10-14T21:45:51.965Z,97.30
2017-10-14T21:48:18.671Z,97.30
2017-10-14T21:50:46.481Z,97.40
2017-10-14T21:53:13.876Z,97.50
2017-10-14T21:55:42.363Z,97.40
2017-10-14T21:58:08.969Z,97.40
2017-10-14T22:00:35.329Z,97.40
2017-10-14T22:03:02.610Z,97.70
2017-10-14T22:05:30.139Z,97.40
2017-10-14T22:07:57.747Z,97.40
2017-10-14T22:10:24.982Z,97.50
2017-10-14T22:12:52.487Z,97.50
2017-10-14T22:15:19.536Z,97.40
2017-10-14T22:17:46.164Z,97.50
2017-10-14T22:20:12.471Z,97.50
2017-10-14T22:22:38.818Z,97.50
2017-10-14T22:25:05.254Z,97.60
2017-10-14T22:27:31.584Z,98.10
2017-10-14T22:29:58.553Z,98.10
2017-10-14T22:32:26.691Z,98.10
2017-10-14T22:34:53.257Z,98.10
2017-10-14T22:37:20.318Z,98.00
2017-10-14T22:39:46.635Z,98.00
2017-10-14T22:42:26.830Z,98.10
2017-10-14T22:44:53.459Z,98.10
2017-10-14T22:47:20.914Z,98.10
2017-10-14T22:49:47.393Z,98.00
2017-10-14T22:52:13.726Z,98.20
2017-10-14T22:54:40.791Z,98.40
2017-10-14T22:57:08.794Z,98.30
2017-10-14T22:59:35.263Z,98.30
2017-10-14T23:02:03.848Z,98.20
2017-10-14T23:04:30.383Z,98.20
2017-10-14T23:06:56.677Z,98.20
2017-10-14T23:09:25.087Z,98.00
2017-10-14T23:11:52.615Z,98.00
2017-10-14T23:14:34.056Z,98.10
2017-10-14T23:17:02.022Z,98.10
2017-10-14T23:19:28.664Z,98.10
2017-10-14T23:21:56.091Z,98.10
2017-10-14T23:24:22.559Z,98.00
2017-10-14T23:26:50.265Z,98.10
2017-10-14T23:29:16.659Z,98.20
2017-10-14T23:31:42.963Z,98.30
2017-10-14T23:34:09.719Z,98.40
2017-10-14T23:36:37.301Z,98.50
2017-10-14T23:39:05.529Z,98.50
2017-10-14T23:41:32.508Z,98.40
2017-10-14T23:43:58.806Z,98.20
2017-10-14T23:46:25.127Z,98.20
2017-10-14T23:48:52.566Z,98.20
2017-10-14T23:51:19.599Z,98.10
2017-10-14T23:53:45.917Z,98.10
2017-10-14T23:56:14.760Z,98.20
2017-10-14T23:58:45.183Z,98.60
